sensor_id;sensor_type;location;lat;lon;timestamp;pressure;altitude;pressure_sealevel;temperature;humidity
60371;BME280;48550;40.588;49.684;2023-11-19T00:00:26;101202.16;;;14.29;100.00
60371;BME280;48550;40.588;49.684;2023-11-19T00:02:52;101199.63;;;14.23;100.00
60371;BME280;48550;40.588;49.684;2023-11-19T00:05:18;101186.53;;;14.15;100.00
60371;BME280;48550;40.588;49.684;2023-11-19T00:07:44;101180.56;;;14.13;100.00
60371;BME280;48550;40.588;49.684;2023-11-19T00:10:11;101185.59;;;14.09;100.00
60371;BME280;48550;40.588;49.684;2023-11-19T00:12:43;101187.72;;;14.07;100.00
60371;BME280;48550;40.588;49.684;2023-11-19T00:15:10;101193.22;;;14.12;100.00
60371;BME280;48550;40.588;49.684;2023-11-19T00:17:41;101204.97;;;14.06;100.00
60371;BME280;48550;40.588;49.684;2023-11-19T00:20:14;101215.53;;;14.08;100.00
60371;BME280;48550;40.588;49.684;2023-11-19T00:22:41;101220.75;;;13.97;100.00
60371;BME280;48550;40.588;49.684;2023-11-19T00:25:08;101234.00;;;13.99;100.00
60371;BME280;48550;40.588;49.684;2023-11-19T00:27:34;101229.31;;;13.94;100.00
60371;BME280;48550;40.588;49.684;2023-11-19T00:30:00;101226.06;;;13.92;100.00
60371;BME280;48550;40.588;49.684;2023-11-19T00:32:26;101227.69;;;13.93;100.00
60371;BME280;48550;40.588;49.684;2023-11-19T00:34:51;101216.41;;;13.96;100.00
60371;BME280;48550;40.588;49.684;2023-11-19T00:37:17;101225.97;;;13.87;100.00
60371;BME280;48550;40.588;49.684;2023-11-19T00:39:43;101236.31;;;13.79;100.00
60371;BME280;48550;40.588;49.684;2023-11-19T00:42:10;101243.34;;;13.80;100.00
60371;BME280;48550;40.588;49.684;2023-11-19T00:44:36;101235.94;;;13.87;100.00
60371;BME280;48550;40.588;49.684;2023-11-19T00:47:02;101248.38;;;13.88;100.00
60371;BME280;48550;40.588;49.684;2023-11-19T00:49:28;101247.44;;;13.82;100.00
60371;BME280;48550;40.588;49.684;2023-11-19T00:51:54;101240.50;;;13.86;100.00
60371;BME280;48550;40.588;49.684;2023-11-19T00:54:19;101247.41;;;13.94;100.00
60371;BME280;48550;40.588;49.684;2023-11-19T00:56:45;101232.88;;;14.12;100.00
60371;BME280;48550;40.588;49.684;2023-11-19T00:59:11;101232.16;;;14.16;100.00
60371;BME280;48550;40.588;49.684;2023-11-19T01:01:37;101233.81;;;14.17;100.00
60371;BME280;48550;40.588;49.684;2023-11-19T01:04:03;101235.47;;;14.35;100.00
60371;BME280;48550;40.588;49.684;2023-11-19T01:06:32;101241.59;;;14.30;100.00
60371;BME280;48550;40.588;49.684;2023-11-19T01:08:58;101240.03;;;14.35;100.00
60371;BME280;48550;40.588;49.684;2023-11-19T01:11:24;101220.81;;;14.31;100.00
60371;BME280;48550;40.588;49.684;2023-11-19T01:13:51;101217.94;;;14.38;100.00
60371;BME280;48550;40.588;49.684;2023-11-19T01:16:18;101225.06;;;14.27;100.00
60371;BME280;48550;40.588;49.684;2023-11-19T01:18:47;101232.50;;;14.37;100.00
60371;BME280;48550;40.588;49.684;2023-11-19T01:21:13;101220.41;;;14.22;100.00
60371;BME280;48550;40.588;49.684;2023-11-19T01:23:42;101212.88;;;14.24;100.00
60371;BME280;48550;40.588;49.684;2023-11-19T01:26:12;101220.72;;;14.26;100.00
60371;BME280;48550;40.588;49.684;2023-11-19T01:28:41;101224.72;;;14.23;100.00
60371;BME280;48550;40.588;49.684;2023-11-19T01:31:11;101223.09;;;14.22;100.00
60371;BME280;48550;40.588;49.684;2023-11-19T01:33:36;101218.09;;;14.14;100.00
60371;BME280;48550;40.588;49.684;2023-11-19T01:36:03;101219.78;;;14.04;100.00
60371;BME280;48550;40.588;49.684;2023-11-19T01:38:29;101212.91;;;13.96;100.00
60371;BME280;48550;40.588;49.684;2023-11-19T01:40:59;101219.03;;;13.91;100.00
60371;BME280;48550;40.588;49.684;2023-11-19T01:43:38;101227.50;;;13.83;100.00
60371;BME280;48550;40.588;49.684;2023-11-19T01:46:05;101207.31;;;13.86;100.00
60371;BME280;48550;40.588;49.684;2023-11-19T01:48:33;101209.03;;;13.92;100.00
60371;BME280;48550;40.588;49.684;2023-11-19T01:51:00;101205.44;;;13.86;100.00
60371;BME280;48550;40.588;49.684;2023-11-19T01:53:27;101199.13;;;13.81;100.00
60371;BME280;48550;40.588;49.684;2023-11-19T01:55:53;101189.16;;;13.81;100.00
60371;BME280;48550;40.588;49.684;2023-11-19T01:58:19;101195.56;;;13.92;100.00
60371;BME280;48550;40.588;49.684;2023-11-19T02:00:45;101195.22;;;13.88;100.00
60371;BME280;48550;40.588;49.684;2023-11-19T02:03:11;101195.69;;;13.85;100.00
60371;BME280;48550;40.588;49.684;2023-11-19T02:05:38;101195.03;;;13.78;100.00
60371;BME280;48550;40.588;49.684;2023-11-19T02:08:05;101190.03;;;13.70;100.00
60371;BME280;48550;40.588;49.684;2023-11-19T02:10:31;101191.09;;;13.69;100.00
60371;BME280;48550;40.588;49.684;2023-11-19T02:12:58;101196.63;;;13.62;100.00
60371;BME280;48550;40.588;49.684;2023-11-19T02:15:24;101192.22;;;13.56;100.00
60371;BME280;48550;40.588;49.684;2023-11-19T02:17:50;101201.94;;;13.57;100.00
60371;BME280;48550;40.588;49.684;2023-11-19T02:20:17;101199.72;;;13.54;100.00
60371;BME280;48550;40.588;49.684;2023-11-19T02:22:46;101196.69;;;13.51;100.00
60371;BME280;48550;40.588;49.684;2023-11-19T02:25:19;101196.44;;;13.52;100.00
60371;BME280;48550;40.588;49.684;2023-11-19T02:27:59;101193.59;;;13.59;100.00
60371;BME280;48550;40.588;49.684;2023-11-19T02:30:26;101197.47;;;13.63;100.00
60371;BME280;48550;40.588;49.684;2023-11-19T02:32:53;101182.56;;;13.60;100.00
60371;BME280;48550;40.588;49.684;2023-11-19T02:35:19;101201.94;;;13.57;100.00
60371;BME280;48550;40.588;49.684;2023-11-19T02:37:47;101203.47;;;13.53;100.00
60371;BME280;48550;40.588;49.684;2023-11-19T02:40:13;101207.81;;;13.54;100.00
60371;BME280;48550;40.588;49.684;2023-11-19T02:42:39;101200.44;;;13.50;100.00
60371;BME280;48550;40.588;49.684;2023-11-19T02:45:05;101207.38;;;13.46;100.00
60371;BME280;48550;40.588;49.684;2023-11-19T02:47:33;101207.22;;;13.52;100.00
60371;BME280;48550;40.588;49.684;2023-11-19T02:49:59;101215.31;;;13.52;100.00
60371;BME280;48550;40.588;49.684;2023-11-19T02:52:26;101214.97;;;13.49;100.00
60371;BME280;48550;40.588;49.684;2023-11-19T02:54:52;101223.84;;;13.61;100.00
60371;BME280;48550;40.588;49.684;2023-11-19T02:57:18;101225.25;;;13.63;100.00
60371;BME280;48550;40.588;49.684;2023-11-19T02:59:46;101227.38;;;13.61;100.00
60371;BME280;48550;40.588;49.684;2023-11-19T03:02:12;101229.47;;;13.59;100.00
60371;BME280;48550;40.588;49.684;2023-11-19T03:04:38;101225.16;;;13.58;100.00
60371;BME280;48550;40.588;49.684;2023-11-19T03:07:05;101230.31;;;13.60;100.00
60371;BME280;48550;40.588;49.684;2023-11-19T03:09:32;101226.09;;;13.52;100.00
60371;BME280;48550;40.588;49.684;2023-11-19T03:12:00;101226.94;;;13.53;100.00
60371;BME280;48550;40.588;49.684;2023-11-19T03:14:25;101221.69;;;13.46;100.00
60371;BME280;48550;40.588;49.684;2023-11-19T03:16:51;101215.13;;;13.42;100.00
60371;BME280;48550;40.588;49.684;2023-11-19T03:19:17;101212.53;;;13.35;100.00
60371;BME280;48550;40.588;49.684;2023-11-19T03:21:43;101210.31;;;13.44;100.00
60371;BME280;48550;40.588;49.684;2023-11-19T03:24:10;101210.78;;;13.29;100.00
60371;BME280;48550;40.588;49.684;2023-11-19T03:26:38;101217.09;;;13.35;100.00
60371;BME280;48550;40.588;49.684;2023-11-19T03:29:04;101211.97;;;13.22;100.00
60371;BME280;48550;40.588;49.684;2023-11-19T03:31:30;101212.22;;;13.20;100.00
60371;BME280;48550;40.588;49.684;2023-11-19T03:33:56;101217.94;;;13.24;100.00
60371;BME280;48550;40.588;49.684;2023-11-19T03:36:22;101219.22;;;13.33;100.00
60371;BME280;48550;40.588;49.684;2023-11-19T03:38:48;101224.28;;;13.41;100.00
60371;BME280;48550;40.588;49.684;2023-11-19T03:41:14;101218.59;;;13.54;100.00
60371;BME280;48550;40.588;49.684;2023-11-19T03:43:40;101225.06;;;13.53;100.00
60371;BME280;48550;40.588;49.684;2023-11-19T03:46:19;101222.25;;;13.48;100.00
60371;BME280;48550;40.588;49.684;2023-11-19T03:48:49;101222.00;;;13.50;100.00
60371;BME280;48550;40.588;49.684;2023-11-19T03:51:14;101230.19;;;13.55;100.00
60371;BME280;48550;40.588;49.684;2023-11-19T03:53:44;101224.19;;;13.64;100.00
60371;BME280;48550;40.588;49.684;2023-11-19T03:56:10;101223.13;;;13.65;100.00
60371;BME280;48550;40.588;49.684;2023-11-19T03:58:37;101217.72;;;13.65;100.00
60371;BME280;48550;40.588;49.684;2023-11-19T04:01:04;101211.84;;;13.68;100.00
60371;BME280;48550;40.588;49.684;2023-11-19T04:03:30;101213.50;;;13.70;100.00
60371;BME280;48550;40.588;49.684;2023-11-19T04:05:56;101207.22;;;13.81;100.00
60371;BME280;48550;40.588;49.684;2023-11-19T04:08:22;101199.66;;;13.94;100.00
60371;BME280;48550;40.588;49.684;2023-11-19T04:10:48;101201.94;;;14.03;100.00
60371;BME280;48550;40.588;49.684;2023-11-19T04:13:14;101208.00;;;14.10;100.00
60371;BME280;48550;40.588;49.684;2023-11-19T04:15:40;101198.72;;;14.17;100.00
60371;BME280;48550;40.588;49.684;2023-11-19T04:18:05;101203.31;;;14.34;100.00
60371;BME280;48550;40.588;49.684;2023-11-19T04:20:31;101210.41;;;14.40;100.00
60371;BME280;48550;40.588;49.684;2023-11-19T04:22:57;101204.63;;;14.48;100.00
60371;BME280;48550;40.588;49.684;2023-11-19T04:25:23;101214.09;;;14.67;100.00
60371;BME280;48550;40.588;49.684;2023-11-19T04:27:51;101214.38;;;15.04;100.00
60371;BME280;48550;40.588;49.684;2023-11-19T04:30:18;101216.41;;;15.14;100.00
60371;BME280;48550;40.588;49.684;2023-11-19T04:32:44;101214.63;;;15.46;100.00
60371;BME280;48550;40.588;49.684;2023-11-19T04:35:10;101217.09;;;15.26;100.00
60371;BME280;48550;40.588;49.684;2023-11-19T04:37:36;101212.84;;;15.74;100.00
60371;BME280;48550;40.588;49.684;2023-11-19T04:40:03;101218.88;;;15.81;100.00
60371;BME280;48550;40.588;49.684;2023-11-19T04:42:29;101211.34;;;16.84;100.00
60371;BME280;48550;40.588;49.684;2023-11-19T04:44:55;101208.84;;;18.07;100.00
60371;BME280;48550;40.588;49.684;2023-11-19T04:47:21;101209.91;;;18.93;100.00
60371;BME280;48550;40.588;49.684;2023-11-19T04:49:46;101219.09;;;19.12;100.00
60371;BME280;48550;40.588;49.684;2023-11-19T04:52:12;101213.28;;;19.44;100.00
60371;BME280;48550;40.588;49.684;2023-11-19T04:54:42;101211.00;;;19.66;100.00
60371;BME280;48550;40.588;49.684;2023-11-19T04:57:09;101222.19;;;19.65;92.96
60371;BME280;48550;40.588;49.684;2023-11-19T04:59:38;101210.63;;;19.24;99.42
60371;BME280;48550;40.588;49.684;2023-11-19T05:02:04;101201.28;;;19.55;98.74
60371;BME280;48550;40.588;49.684;2023-11-19T05:04:30;101211.63;;;20.66;84.43
60371;BME280;48550;40.588;49.684;2023-11-19T05:06:56;101217.00;;;21.29;78.81
60371;BME280;48550;40.588;49.684;2023-11-19T05:09:22;101217.78;;;21.05;72.35
60371;BME280;48550;40.588;49.684;2023-11-19T05:11:47;101207.47;;;21.87;69.59
60371;BME280;48550;40.588;49.684;2023-11-19T05:14:13;101212.19;;;21.82;68.71
60371;BME280;48550;40.588;49.684;2023-11-19T05:16:40;101210.16;;;22.44;66.76
60371;BME280;48550;40.588;49.684;2023-11-19T05:19:06;101208.88;;;21.66;68.38
60371;BME280;48550;40.588;49.684;2023-11-19T05:21:32;101198.03;;;21.13;69.94
60371;BME280;48550;40.588;49.684;2023-11-19T05:23:59;101191.41;;;20.43;76.24
60371;BME280;48550;40.588;49.684;2023-11-19T05:26:24;101184.16;;;20.28;77.39
60371;BME280;48550;40.588;49.684;2023-11-19T05:28:50;101189.88;;;20.60;77.39
60371;BME280;48550;40.588;49.684;2023-11-19T05:31:17;101193.28;;;21.00;73.08
60371;BME280;48550;40.588;49.684;2023-11-19T05:33:43;101180.94;;;20.79;79.46
60371;BME280;48550;40.588;49.684;2023-11-19T05:36:11;101177.78;;;20.43;75.90
60371;BME280;48550;40.588;49.684;2023-11-19T05:38:38;101190.78;;;20.17;80.41
60371;BME280;48550;40.588;49.684;2023-11-19T05:41:04;101177.69;;;20.19;80.54
60371;BME280;48550;40.588;49.684;2023-11-19T05:43:30;101176.06;;;20.81;77.29
60371;BME280;48550;40.588;49.684;2023-11-19T05:45:56;101181.69;;;20.89;75.60
60371;BME280;48550;40.588;49.684;2023-11-19T05:48:22;101181.03;;;20.98;77.71
60371;BME280;48550;40.588;49.684;2023-11-19T05:50:48;101187.44;;;20.88;73.20
60371;BME280;48550;40.588;49.684;2023-11-19T05:53:16;101183.66;;;21.50;74.02
60371;BME280;48550;40.588;49.684;2023-11-19T05:55:42;101174.03;;;22.28;65.61
60371;BME280;48550;40.588;49.684;2023-11-19T05:58:29;101163.38;;;22.73;62.89
60371;BME280;48550;40.588;49.684;2023-11-19T06:00:56;101163.16;;;22.56;62.26
60371;BME280;48550;40.588;49.684;2023-11-19T06:03:22;101172.53;;;21.84;70.55
60371;BME280;48550;40.588;49.684;2023-11-19T06:05:49;101161.78;;;21.55;70.77
60371;BME280;48550;40.588;49.684;2023-11-19T06:08:15;101159.31;;;21.54;71.43
60371;BME280;48550;40.588;49.684;2023-11-19T06:10:41;101157.41;;;21.12;71.31
60371;BME280;48550;40.588;49.684;2023-11-19T06:13:07;101145.66;;;20.63;77.96
60371;BME280;48550;40.588;49.684;2023-11-19T06:15:35;101149.66;;;20.13;78.60
60371;BME280;48550;40.588;49.684;2023-11-19T06:18:02;101159.50;;;20.43;82.36
60371;BME280;48550;40.588;49.684;2023-11-19T06:20:29;101154.13;;;20.33;79.44
60371;BME280;48550;40.588;49.684;2023-11-19T06:22:56;101145.16;;;19.00;91.37
60371;BME280;48550;40.588;49.684;2023-11-19T06:25:22;101143.94;;;19.26;95.95
60371;BME280;48550;40.588;49.684;2023-11-19T06:27:50;101136.75;;;18.91;96.29
60371;BME280;48550;40.588;49.684;2023-11-19T06:30:16;101146.34;;;18.63;99.17
60371;BME280;48550;40.588;49.684;2023-11-19T06:32:42;101135.63;;;18.97;99.79
60371;BME280;48550;40.588;49.684;2023-11-19T06:35:08;101141.91;;;18.93;99.58
60371;BME280;48550;40.588;49.684;2023-11-19T06:37:35;101139.59;;;18.05;100.00
60371;BME280;48550;40.588;49.684;2023-11-19T06:40:01;101148.28;;;17.87;100.00
60371;BME280;48550;40.588;49.684;2023-11-19T06:42:27;101158.84;;;17.83;100.00
60371;BME280;48550;40.588;49.684;2023-11-19T06:44:53;101148.78;;;18.39;100.00
60371;BME280;48550;40.588;49.684;2023-11-19T06:47:18;101157.78;;;18.20;100.00
60371;BME280;48550;40.588;49.684;2023-11-19T06:49:44;101152.91;;;17.86;100.00
60371;BME280;48550;40.588;49.684;2023-11-19T06:52:10;101154.44;;;17.57;100.00
60371;BME280;48550;40.588;49.684;2023-11-19T06:54:37;101146.34;;;17.67;100.00
60371;BME280;48550;40.588;49.684;2023-11-19T06:57:03;101149.56;;;17.64;100.00
60371;BME280;48550;40.588;49.684;2023-11-19T06:59:30;101153.66;;;17.66;100.00
60371;BME280;48550;40.588;49.684;2023-11-19T07:01:56;101158.81;;;17.73;100.00
60371;BME280;48550;40.588;49.684;2023-11-19T07:04:22;101147.97;;;17.73;100.00
60371;BME280;48550;40.588;49.684;2023-11-19T07:06:48;101140.63;;;17.78;100.00
60371;BME280;48550;40.588;49.684;2023-11-19T07:09:14;101140.41;;;17.85;100.00
60371;BME280;48550;40.588;49.684;2023-11-19T07:11:41;101132.75;;;17.67;100.00
60371;BME280;48550;40.588;49.684;2023-11-19T07:14:08;101126.81;;;17.95;100.00
60371;BME280;48550;40.588;49.684;2023-11-19T07:16:34;101126.56;;;18.02;100.00
60371;BME280;48550;40.588;49.684;2023-11-19T07:19:01;101123.56;;;17.98;100.00
60371;BME280;48550;40.588;49.684;2023-11-19T07:21:27;101122.75;;;18.08;100.00
60371;BME280;48550;40.588;49.684;2023-11-19T07:23:55;101130.34;;;18.11;100.00
60371;BME280;48550;40.588;49.684;2023-11-19T07:26:22;101113.78;;;17.92;100.00
60371;BME280;48550;40.588;49.684;2023-11-19T07:28:48;101110.00;;;17.88;100.00
60371;BME280;48550;40.588;49.684;2023-11-19T07:31:14;101102.38;;;18.05;100.00
60371;BME280;48550;40.588;49.684;2023-11-19T07:33:40;101103.19;;;17.96;100.00
60371;BME280;48550;40.588;49.684;2023-11-19T07:36:10;101095.03;;;18.21;100.00
60371;BME280;48550;40.588;49.684;2023-11-19T07:38:36;101092.56;;;18.30;100.00
60371;BME280;48550;40.588;49.684;2023-11-19T07:41:02;101089.31;;;18.23;100.00
60371;BME280;48550;40.588;49.684;2023-11-19T07:43:28;101080.88;;;18.34;100.00
60371;BME280;48550;40.588;49.684;2023-11-19T07:45:54;101074.03;;;18.47;100.00
60371;BME280;48550;40.588;49.684;2023-11-19T07:48:20;101067.50;;;18.53;100.00
60371;BME280;48550;40.588;49.684;2023-11-19T07:50:50;101049.63;;;18.27;100.00
60371;BME280;48550;40.588;49.684;2023-11-19T07:53:19;101070.50;;;18.67;100.00
60371;BME280;48550;40.588;49.684;2023-11-19T07:55:46;101059.06;;;18.70;100.00
60371;BME280;48550;40.588;49.684;2023-11-19T07:58:11;101056.63;;;18.58;100.00
60371;BME280;48550;40.588;49.684;2023-11-19T08:00:38;101051.72;;;18.60;100.00
60371;BME280;48550;40.588;49.684;2023-11-19T08:03:04;101049.81;;;18.61;100.00
60371;BME280;48550;40.588;49.684;2023-11-19T08:05:33;101043.06;;;18.63;100.00
60371;BME280;48550;40.588;49.684;2023-11-19T08:07:58;101044.91;;;18.58;100.00
60371;BME280;48550;40.588;49.684;2023-11-19T08:10:24;101030.88;;;18.35;100.00
60371;BME280;48550;40.588;49.684;2023-11-19T08:12:50;101029.19;;;18.45;100.00
60371;BME280;48550;40.588;49.684;2023-11-19T08:15:16;101030.91;;;18.25;100.00
60371;BME280;48550;40.588;49.684;2023-11-19T08:17:42;101033.00;;;18.43;100.00
60371;BME280;48550;40.588;49.684;2023-11-19T08:20:11;101031.34;;;18.53;100.00
60371;BME280;48550;40.588;49.684;2023-11-19T08:22:37;101023.13;;;18.78;100.00
60371;BME280;48550;40.588;49.684;2023-11-19T08:25:06;101024.53;;;18.60;100.00
60371;BME280;48550;40.588;49.684;2023-11-19T08:27:32;101018.00;;;18.56;100.00
60371;BME280;48550;40.588;49.684;2023-11-19T08:29:58;101009.63;;;18.63;100.00
60371;BME280;48550;40.588;49.684;2023-11-19T08:32:24;101002.78;;;18.55;100.00
60371;BME280;48550;40.588;49.684;2023-11-19T08:34:50;101006.63;;;18.64;100.00
60371;BME280;48550;40.588;49.684;2023-11-19T08:37:16;100996.47;;;18.80;100.00
60371;BME280;48550;40.588;49.684;2023-11-19T08:39:49;100999.00;;;18.66;100.00
60371;BME280;48550;40.588;49.684;2023-11-19T08:42:16;100982.09;;;18.75;100.00
60371;BME280;48550;40.588;49.684;2023-11-19T08:44:49;100967.19;;;18.67;100.00
60371;BME280;48550;40.588;49.684;2023-11-19T08:47:16;100969.34;;;18.70;100.00
60371;BME280;48550;40.588;49.684;2023-11-19T08:49:45;100953.38;;;18.43;100.00
60371;BME280;48550;40.588;49.684;2023-11-19T08:52:11;100955.81;;;18.45;100.00
60371;BME280;48550;40.588;49.684;2023-11-19T08:54:38;100957.13;;;18.52;100.00
60371;BME280;48550;40.588;49.684;2023-11-19T08:57:07;100953.34;;;18.58;100.00
60371;BME280;48550;40.588;49.684;2023-11-19T08:59:34;100951.16;;;18.65;100.00
60371;BME280;48550;40.588;49.684;2023-11-19T09:02:01;100957.13;;;18.52;100.00
60371;BME280;48550;40.588;49.684;2023-11-19T09:04:27;100946.53;;;18.61;100.00
60371;BME280;48550;40.588;49.684;2023-11-19T09:06:53;100951.72;;;18.47;100.00
60371;BME280;48550;40.588;49.684;2023-11-19T09:09:20;100952.78;;;18.51;100.00
60371;BME280;48550;40.588;49.684;2023-11-19T09:11:46;100940.84;;;18.52;100.00
60371;BME280;48550;40.588;49.684;2023-11-19T09:14:12;100943.28;;;18.59;100.00
60371;BME280;48550;40.588;49.684;2023-11-19T09:16:38;100939.22;;;18.61;100.00
60371;BME280;48550;40.588;49.684;2023-11-19T09:19:04;100928.06;;;18.63;100.00
60371;BME280;48550;40.588;49.684;2023-11-19T09:21:30;100933.72;;;18.71;100.00
60371;BME280;48550;40.588;49.684;2023-11-19T09:23:57;100929.91;;;18.72;100.00
60371;BME280;48550;40.588;49.684;2023-11-19T09:26:23;100928.88;;;18.63;100.00
60371;BME280;48550;40.588;49.684;2023-11-19T09:28:51;100920.16;;;18.56;100.00
60371;BME280;48550;40.588;49.684;2023-11-19T09:31:17;100909.00;;;18.68;100.00
60371;BME280;48550;40.588;49.684;2023-11-19T09:33:44;100916.69;;;18.46;100.00
60371;BME280;48550;40.588;49.684;2023-11-19T09:36:14;100913.69;;;18.47;100.00
60371;BME280;48550;40.588;49.684;2023-11-19T09:38:45;100922.13;;;18.46;100.00
60371;BME280;48550;40.588;49.684;2023-11-19T09:41:11;100909.84;;;18.58;100.00
60371;BME280;48550;40.588;49.684;2023-11-19T09:43:42;100916.09;;;18.59;100.00
60371;BME280;48550;40.588;49.684;2023-11-19T09:46:13;100908.25;;;18.47;100.00
60371;BME280;48550;40.588;49.684;2023-11-19T09:48:40;100908.81;;;18.44;100.00
60371;BME280;48550;40.588;49.684;2023-11-19T09:51:10;100899.56;;;18.45;100.00
60371;BME280;48550;40.588;49.684;2023-11-19T09:53:37;100905.59;;;18.32;100.00
60371;BME280;48550;40.588;49.684;2023-11-19T09:56:06;100881.47;;;18.25;100.00
60371;BME280;48550;40.588;49.684;2023-11-19T09:58:33;100874.75;;;18.07;100.00
60371;BME280;48550;40.588;49.684;2023-11-19T10:01:00;100871.44;;;18.21;100.00
60371;BME280;48550;40.588;49.684;2023-11-19T10:03:35;100868.19;;;18.19;100.00
60371;BME280;48550;40.588;49.684;2023-11-19T10:06:04;100864.66;;;18.18;100.00
60371;BME280;48550;40.588;49.684;2023-11-19T10:08:32;100856.50;;;18.18;100.00
60371;BME280;48550;40.588;49.684;2023-11-19T10:10:57;100868.44;;;18.22;100.00
60371;BME280;48550;40.588;49.684;2023-11-19T10:13:28;100857.91;;;18.10;100.00
60371;BME280;48550;40.588;49.684;2023-11-19T10:15:55;100857.38;;;18.08;100.00
60371;BME280;48550;40.588;49.684;2023-11-19T10:18:27;100862.44;;;18.25;100.00
60371;BME280;48550;40.588;49.684;2023-11-19T10:20:53;100850.22;;;18.23;100.00
60371;BME280;48550;40.588;49.684;2023-11-19T10:23:20;100862.81;;;18.08;100.00
60371;BME280;48550;40.588;49.684;2023-11-19T10:25:46;100860.00;;;18.24;100.00
60371;BME280;48550;40.588;49.684;2023-11-19T10:28:15;100851.28;;;18.27;100.00
60371;BME280;48550;40.588;49.684;2023-11-19T10:30:41;100846.66;;;18.32;100.00
60371;BME280;48550;40.588;49.684;2023-11-19T10:33:13;100845.00;;;18.36;100.00
60371;BME280;48550;40.588;49.684;2023-11-19T10:35:54;100838.00;;;18.25;100.00
60371;BME280;48550;40.588;49.684;2023-11-19T10:38:22;100829.31;;;18.23;100.00
60371;BME280;48550;40.588;49.684;2023-11-19T10:40:49;100820.00;;;18.34;100.00
60371;BME280;48550;40.588;49.684;2023-11-19T10:43:19;100805.59;;;18.34;100.00
60371;BME280;48550;40.588;49.684;2023-11-19T10:45:46;100808.28;;;18.39;100.00
60371;BME280;48550;40.588;49.684;2023-11-19T10:48:12;100809.09;;;18.39;100.00
60371;BME280;48550;40.588;49.684;2023-11-19T10:50:40;100807.28;;;18.25;100.00
60371;BME280;48550;40.588;49.684;2023-11-19T10:53:08;100806.63;;;18.43;100.00
60371;BME280;48550;40.588;49.684;2023-11-19T10:55:35;100794.66;;;18.44;100.00
60371;BME280;48550;40.588;49.684;2023-11-19T10:58:10;100787.13;;;18.36;100.00
60371;BME280;48550;40.588;49.684;2023-11-19T11:03:18;100792.22;;;18.42;100.00
60371;BME280;48550;40.588;49.684;2023-11-19T11:05:48;100796.34;;;18.35;100.00
60371;BME280;48550;40.588;49.684;2023-11-19T11:08:14;100799.22;;;18.54;100.00
60371;BME280;48550;40.588;49.684;2023-11-19T11:10:44;100795.41;;;18.55;100.00
60371;BME280;48550;40.588;49.684;2023-11-19T11:13:10;100791.84;;;18.59;100.00
60371;BME280;48550;40.588;49.684;2023-11-19T11:15:37;100790.22;;;18.63;100.00
60371;BME280;48550;40.588;49.684;2023-11-19T11:18:08;100789.69;;;18.61;100.00
60371;BME280;48550;40.588;49.684;2023-11-19T11:20:34;100788.06;;;18.55;100.00
60371;BME280;48550;40.588;49.684;2023-11-19T11:23:31;100792.97;;;18.53;100.00
60371;BME280;48550;40.588;49.684;2023-11-19T11:28:58;100808.56;;;18.37;100.00
60371;BME280;48550;40.588;49.684;2023-11-19T11:31:51;100810.47;;;18.37;100.00
60371;BME280;48550;40.588;49.684;2023-11-19T11:37:28;100810.19;;;18.38;100.00
60371;BME280;48550;40.588;49.684;2023-11-19T11:39:57;100802.03;;;18.38;100.00
60371;BME280;48550;40.588;49.684;2023-11-19T11:45:06;100804.78;;;18.33;100.00
60371;BME280;48550;40.588;49.684;2023-11-19T11:50:12;100786.63;;;18.29;100.00
60371;BME280;48550;40.588;49.684;2023-11-19T11:55:28;100780.69;;;18.22;100.00
60371;BME280;48550;40.588;49.684;2023-11-19T11:57:59;100779.31;;;18.24;100.00
60371;BME280;48550;40.588;49.684;2023-11-19T12:00:39;100770.94;;;18.16;100.00
60371;BME280;48550;40.588;49.684;2023-11-19T12:03:06;100774.53;;;18.06;100.00
60371;BME280;48550;40.588;49.684;2023-11-19T12:05:33;100767.22;;;18.06;100.00
60371;BME280;48550;40.588;49.684;2023-11-19T12:08:03;100769.72;;;17.98;100.00
60371;BME280;48550;40.588;49.684;2023-11-19T12:10:38;100757.19;;;18.02;100.00
60371;BME280;48550;40.588;49.684;2023-11-19T12:13:09;100765.59;;;18.05;100.00
60371;BME280;48550;40.588;49.684;2023-11-19T12:18:27;100750.41;;;17.99;100.00
60371;BME280;48550;40.588;49.684;2023-11-19T12:20:54;100741.13;;;18.05;100.00
60371;BME280;48550;40.588;49.684;2023-11-19T12:23:20;100750.38;;;18.04;100.00
60371;BME280;48550;40.588;49.684;2023-11-19T12:25:46;100750.66;;;18.03;100.00
60371;BME280;48550;40.588;49.684;2023-11-19T12:28:13;100752.59;;;17.97;100.00
60371;BME280;48550;40.588;49.684;2023-11-19T12:30:39;100751.78;;;17.97;100.00
60371;BME280;48550;40.588;49.684;2023-11-19T12:33:08;100756.72;;;17.90;100.00
60371;BME280;48550;40.588;49.684;2023-11-19T12:35:40;100759.97;;;17.92;100.00
60371;BME280;48550;40.588;49.684;2023-11-19T12:38:06;100760.00;;;17.82;100.00
60371;BME280;48550;40.588;49.684;2023-11-19T12:40:32;100756.78;;;17.74;100.00
60371;BME280;48550;40.588;49.684;2023-11-19T12:42:59;100759.22;;;17.71;100.00
60371;BME280;48550;40.588;49.684;2023-11-19T12:45:34;100763.00;;;17.75;100.00
60371;BME280;48550;40.588;49.684;2023-11-19T12:48:07;100756.81;;;17.69;100.00
60371;BME280;48550;40.588;49.684;2023-11-19T12:50:51;100759.22;;;17.66;100.00